createdAt,value
2023-02-27T00:00:22.678Z,2.30
2023-02-27T00:02:52.156Z,2.00
2023-02-27T00:05:20.232Z,2.45
2023-02-27T00:07:47.177Z,2.80
2023-02-27T00:10:15.260Z,2.28
2023-02-27T00:12:42.956Z,1.70
2023-02-27T00:15:19.713Z,2.15
2023-02-27T00:17:46.641Z,2.05
2023-02-27T00:20:16.675Z,2.35
2023-02-27T00:22:44.896Z,1.90
2023-02-27T00:25:13.576Z,2.15
2023-02-27T00:27:41.025Z,2.15
2023-02-27T00:30:12.018Z,2.95
2023-02-27T00:32:38.969Z,2.38
2023-02-27T00:35:08.827Z,2.53
2023-02-27T00:37:36.028Z,3.13
2023-02-27T00:40:05.313Z,2.00
2023-02-27T00:42:32.586Z,3.15
2023-02-27T00:44:59.456Z,2.05
2023-02-27T00:47:26.384Z,2.75
2023-02-27T00:49:53.404Z,2.97
2023-02-27T00:52:20.309Z,2.00
2023-02-27T00:54:47.164Z,2.30
2023-02-27T00:57:14.165Z,2.63
2023-02-27T00:59:41.372Z,2.00
2023-02-27T01:02:08.522Z,2.08
2023-02-27T01:04:36.089Z,2.20
2023-02-27T01:07:03.520Z,4.05
2023-02-27T01:09:30.393Z,1.80
2023-02-27T01:11:57.695Z,2.22
2023-02-27T01:14:24.946Z,2.17
2023-02-27T01:16:52.070Z,2.05
2023-02-27T01:19:18.923Z,1.83
2023-02-27T01:21:46.128Z,2.00
2023-02-27T01:24:13.398Z,2.08
2023-02-27T01:26:40.347Z,2.30
2023-02-27T01:29:07.257Z,2.10
2023-02-27T01:31:34.507Z,1.92
2023-02-27T01:34:01.457Z,1.85
2023-02-27T01:36:28.600Z,2.08
2023-02-27T01:38:55.584Z,3.50
2023-02-27T01:41:22.486Z,2.50
2023-02-27T01:44:09.128Z,2.35
2023-02-27T01:46:36.388Z,2.85
2023-02-27T01:49:32.246Z,2.33
2023-02-27T01:52:08.351Z,2.55
2023-02-27T01:54:40.317Z,3.92
2023-02-27T01:57:08.660Z,2.75
2023-02-27T01:59:38.534Z,1.92
2023-02-27T02:02:14.585Z,4.93
2023-02-27T02:04:42.764Z,1.95
2023-02-27T02:07:17.450Z,2.65
2023-02-27T02:09:50.692Z,2.67
2023-02-27T02:12:22.446Z,2.60
2023-02-27T02:14:49.479Z,2.25
2023-02-27T02:18:11.668Z,2.20
2023-02-27T02:21:27.411Z,2.65
2023-02-27T02:24:45.637Z,2.03
2023-02-27T02:27:38.016Z,1.55
2023-02-27T02:30:53.541Z,2.95
2023-02-27T02:34:07.827Z,2.90
2023-02-27T02:37:17.307Z,2.00
2023-02-27T02:40:18.252Z,2.70
2023-02-27T02:45:49.697Z,2.22
2023-02-27T02:48:44.470Z,2.78
2023-02-27T02:51:36.728Z,2.72
2023-02-27T02:54:17.349Z,2.25
2023-02-27T02:57:02.880Z,3.25
2023-02-27T02:59:44.092Z,2.42
2023-02-27T03:02:17.171Z,2.20
2023-02-27T03:05:02.361Z,3.50
2023-02-27T03:07:39.174Z,3.03
2023-02-27T03:10:26.596Z,2.25
2023-02-27T03:13:03.407Z,2.35
2023-02-27T03:15:48.244Z,2.10
2023-02-27T03:18:25.978Z,4.25
2023-02-27T03:20:59.658Z,2.83
2023-02-27T03:23:48.463Z,2.97
2023-02-27T03:26:23.259Z,2.42
2023-02-27T03:29:06.457Z,3.20
2023-02-27T03:31:56.609Z,2.85
2023-02-27T03:34:32.764Z,2.22
2023-02-27T03:37:17.416Z,2.25
2023-02-27T03:39:51.040Z,3.58
2023-02-27T03:42:23.569Z,2.67
2023-02-27T03:45:03.010Z,2.53
2023-02-27T03:47:31.076Z,2.38
2023-02-27T03:49:58.035Z,2.20
2023-02-27T03:52:28.917Z,2.92
2023-02-27T03:55:14.042Z,2.40
2023-02-27T03:57:42.523Z,2.63
2023-02-27T04:00:18.375Z,2.63
2023-02-27T04:02:50.546Z,2.67
2023-02-27T04:05:19.622Z,3.85
2023-02-27T04:08:07.482Z,2.63
2023-02-27T04:10:55.446Z,2.15
2023-02-27T04:13:40.199Z,2.28
2023-02-27T04:16:48.315Z,2.35
2023-02-27T04:19:38.096Z,2.10
2023-02-27T04:22:35.766Z,3.65
2023-02-27T04:25:22.207Z,2.40
2023-02-27T04:28:05.164Z,2.03
2023-02-27T04:30:57.752Z,2.42
2023-02-27T04:33:33.427Z,2.10
2023-02-27T04:36:19.906Z,2.63
2023-02-27T04:39:26.444Z,3.17
2023-02-27T04:42:01.538Z,2.40
2023-02-27T04:44:33.162Z,3.55
2023-02-27T04:47:04.768Z,2.53
2023-02-27T04:49:55.189Z,2.95
2023-02-27T04:52:46.048Z,2.40
2023-02-27T04:58:03.199Z,2.22
2023-02-27T05:00:34.339Z,2.22
2023-02-27T05:03:19.258Z,2.67
2023-02-27T05:05:48.642Z,2.03
2023-02-27T05:08:58.952Z,2.85
2023-02-27T05:11:39.602Z,2.80
2023-02-27T05:14:35.596Z,2.47
2023-02-27T05:17:46.105Z,2.50
2023-02-27T05:20:15.683Z,2.33
2023-02-27T05:22:53.865Z,2.58
2023-02-27T05:25:48.439Z,2.28
2023-02-27T05:28:26.354Z,2.40
2023-02-27T05:31:03.191Z,3.10
2023-02-27T05:33:38.808Z,3.20
2023-02-27T05:36:28.587Z,2.55
2023-02-27T05:39:04.814Z,2.13
2023-02-27T05:41:48.776Z,4.03
2023-02-27T05:44:33.866Z,3.63
2023-02-27T05:47:08.464Z,2.08
2023-02-27T05:49:47.324Z,5.50
2023-02-27T05:52:20.316Z,2.67
2023-02-27T05:54:59.074Z,2.30
2023-02-27T05:57:43.667Z,2.75
2023-02-27T06:00:40.717Z,2.38
2023-02-27T06:03:07.775Z,2.08
2023-02-27T06:05:38.425Z,1.98
2023-02-27T06:08:05.305Z,2.45
2023-02-27T06:10:32.575Z,2.60
2023-02-27T06:12:59.430Z,2.30
2023-02-27T06:15:26.484Z,3.85
2023-02-27T06:17:53.383Z,2.65
2023-02-27T06:20:20.727Z,2.97
2023-02-27T06:22:47.608Z,3.78
2023-02-27T06:25:14.502Z,2.60
2023-02-27T06:27:41.351Z,2.97
2023-02-27T06:30:09.552Z,2.15
2023-02-27T06:32:36.491Z,2.85
2023-02-27T06:35:03.522Z,2.47
2023-02-27T06:37:30.409Z,2.38
2023-02-27T06:39:57.229Z,2.65
2023-02-27T06:42:24.696Z,3.00
2023-02-27T06:44:51.543Z,2.47
2023-02-27T06:47:18.438Z,2.92
2023-02-27T06:49:45.223Z,2.88
2023-02-27T06:52:12.136Z,3.58
2023-02-27T06:58:32.315Z,2.33
2023-02-27T07:01:00.969Z,2.83
2023-02-27T07:03:28.099Z,2.78
2023-02-27T07:05:56.441Z,2.45
2023-02-27T07:08:23.299Z,3.22
2023-02-27T07:10:50.163Z,2.63
2023-02-27T07:13:19.550Z,2.38
2023-02-27T07:15:47.026Z,2.50
2023-02-27T07:18:13.924Z,3.50
2023-02-27T07:20:40.759Z,3.50
2023-02-27T07:23:07.659Z,2.58
2023-02-27T07:25:34.610Z,3.42
2023-02-27T07:28:01.540Z,3.15
2023-02-27T07:30:30.640Z,2.80
2023-02-27T07:32:57.612Z,2.78
2023-02-27T07:35:24.833Z,2.40
2023-02-27T07:37:51.908Z,2.78
2023-02-27T07:40:18.934Z,5.07
2023-02-27T07:42:48.868Z,3.08
2023-02-27T07:45:18.382Z,3.22
2023-02-27T07:47:46.027Z,2.53
2023-02-27T07:50:14.108Z,4.80
2023-02-27T07:52:42.829Z,3.25
2023-02-27T07:55:13.274Z,2.97
2023-02-27T07:57:40.190Z,3.40
2023-02-27T08:00:09.899Z,2.45
2023-02-27T08:02:37.023Z,2.97
2023-02-27T08:05:04.707Z,3.05
2023-02-27T08:07:31.604Z,2.80
2023-02-27T08:09:58.645Z,3.00
2023-02-27T08:12:25.732Z,2.55
2023-02-27T08:14:52.550Z,2.95
2023-02-27T08:17:19.492Z,2.85
2023-02-27T08:19:46.710Z,6.22
2023-02-27T08:22:13.567Z,3.28
2023-02-27T08:24:40.655Z,2.78
2023-02-27T08:27:08.239Z,5.85
2023-02-27T08:29:35.365Z,3.65
2023-02-27T08:32:02.710Z,4.53
2023-02-27T08:34:30.350Z,3.50
2023-02-27T08:36:57.246Z,3.53
2023-02-27T08:39:26.902Z,3.53
2023-02-27T08:41:53.863Z,3.80
2023-02-27T08:44:21.182Z,3.75
2023-02-27T08:46:48.150Z,4.22
2023-02-27T08:49:15.068Z,4.70
2023-02-27T08:51:41.935Z,3.85
2023-02-27T08:54:08.871Z,4.22
2023-02-27T08:56:35.771Z,3.65
2023-02-27T08:59:02.840Z,3.80
2023-02-27T09:01:34.300Z,4.00
2023-02-27T09:04:03.712Z,3.85
2023-02-27T09:06:31.893Z,3.45
2023-02-27T09:08:59.167Z,4.47
2023-02-27T09:11:27.992Z,4.10
2023-02-27T09:13:55.676Z,4.07
2023-02-27T09:16:23.838Z,3.83
2023-02-27T09:18:51.268Z,3.33
2023-02-27T09:21:18.268Z,5.03
2023-02-27T09:23:45.174Z,3.88
2023-02-27T09:26:12.402Z,3.85
2023-02-27T09:28:41.833Z,5.72
2023-02-27T09:31:10.324Z,4.28
2023-02-27T09:33:38.448Z,3.75
2023-02-27T09:36:07.599Z,3.72
2023-02-27T09:38:36.849Z,4.03
2023-02-27T09:41:05.758Z,3.83
2023-02-27T09:43:50.734Z,4.78
2023-02-27T09:46:24.596Z,4.75
2023-02-27T09:48:57.206Z,4.57
2023-02-27T09:51:25.346Z,5.18
2023-02-27T09:53:58.557Z,4.47
2023-02-27T09:56:35.511Z,5.80
2023-02-27T09:59:10.859Z,4.25
2023-02-27T10:01:47.503Z,4.40
2023-02-27T10:04:37.793Z,3.90
2023-02-27T10:07:35.168Z,3.85
2023-02-27T10:10:55.008Z,5.00
2023-02-27T10:13:50.885Z,3.72
2023-02-27T10:16:22.374Z,4.13
2023-02-27T10:19:05.667Z,5.82
2023-02-27T10:21:44.870Z,3.35
2023-02-27T10:24:49.340Z,3.60
2023-02-27T10:27:21.509Z,3.35
2023-02-27T10:29:48.916Z,3.72
2023-02-27T10:32:28.400Z,4.07
2023-02-27T10:35:09.397Z,3.78
2023-02-27T10:37:41.704Z,3.65
2023-02-27T10:40:16.036Z,3.83
2023-02-27T10:42:43.576Z,3.50
2023-02-27T10:45:17.032Z,3.20
2023-02-27T10:47:44.955Z,3.60
2023-02-27T10:50:29.429Z,4.90
2023-02-27T10:53:00.473Z,2.63
2023-02-27T10:55:33.529Z,3.83
2023-02-27T10:58:03.275Z,2.83
2023-02-27T11:00:53.888Z,5.47
2023-02-27T11:03:46.928Z,2.83
2023-02-27T11:06:27.748Z,2.58
2023-02-27T11:11:40.036Z,1.95
2023-02-27T11:14:28.630Z,3.08
2023-02-27T11:17:02.171Z,4.43
2023-02-27T11:19:35.321Z,2.65
2023-02-27T11:22:20.685Z,3.15
2023-02-27T11:24:48.243Z,2.35
2023-02-27T11:27:29.228Z,2.65
2023-02-27T11:30:00.008Z,2.53
2023-02-27T11:35:35.011Z,2.20
2023-02-27T11:38:06.288Z,2.30
2023-02-27T11:40:50.271Z,1.80
2023-02-27T11:43:20.627Z,2.28
2023-02-27T11:46:41.146Z,2.00
2023-02-27T11:49:21.047Z,3.50
2023-02-27T11:52:13.596Z,2.45
2023-02-27T11:54:49.257Z,2.70
2023-02-27T11:57:33.723Z,3.08
2023-02-27T12:00:19.712Z,2.35
2023-02-27T12:03:29.487Z,1.95
2023-02-27T12:06:04.815Z,2.13
2023-02-27T12:08:46.067Z,2.78
2023-02-27T12:11:34.559Z,2.38
2023-02-27T12:14:16.511Z,3.50
2023-02-27T12:17:09.115Z,1.88
2023-02-27T12:20:21.428Z,1.98
2023-02-27T12:22:52.745Z,2.75
2023-02-27T12:25:46.557Z,2.28
2023-02-27T12:28:29.335Z,2.13
2023-02-27T12:31:36.011Z,2.05
2023-02-27T12:34:33.601Z,1.85
2023-02-27T12:37:27.557Z,3.33
2023-02-27T12:39:59.800Z,2.38
2023-02-27T12:42:53.940Z,1.70
2023-02-27T12:45:56.465Z,2.15
2023-02-27T12:48:41.185Z,2.45
2023-02-27T12:51:34.216Z,3.42
2023-02-27T12:54:32.418Z,2.30
2023-02-27T12:57:11.741Z,2.45
2023-02-27T13:00:06.462Z,1.80
2023-02-27T13:02:48.539Z,4.15
2023-02-27T13:05:33.498Z,1.98
2023-02-27T13:08:14.451Z,2.00
2023-02-27T13:11:06.624Z,1.95
2023-02-27T13:13:58.935Z,4.50
2023-02-27T13:17:10.851Z,2.33
2023-02-27T13:20:04.999Z,4.38
2023-02-27T13:23:02.180Z,2.70
2023-02-27T13:25:33.353Z,2.33
2023-02-27T13:28:14.849Z,2.50
2023-02-27T13:31:12.566Z,2.00
2023-02-27T13:33:59.680Z,4.30
2023-02-27T13:36:43.937Z,2.30
2023-02-27T13:39:51.094Z,2.45
2023-02-27T13:42:27.153Z,1.90
2023-02-27T13:45:03.834Z,5.22
2023-02-27T13:47:30.739Z,2.75
2023-02-27T13:50:05.088Z,2.05
2023-02-27T13:52:38.335Z,3.47
2023-02-27T13:55:36.938Z,2.83
2023-02-27T13:58:05.871Z,2.78
2023-02-27T14:00:35.567Z,2.45
2023-02-27T14:03:18.794Z,2.65
2023-02-27T14:05:48.820Z,3.13
2023-02-27T14:08:27.487Z,4.45
2023-02-27T14:11:28.658Z,3.20
2023-02-27T14:13:57.573Z,2.65
2023-02-27T14:16:43.950Z,3.17
2023-02-27T14:19:19.528Z,2.63
2023-02-27T14:21:57.485Z,2.97
2023-02-27T14:24:44.864Z,2.72
2023-02-27T14:27:24.814Z,2.35
2023-02-27T14:29:57.364Z,3.65
2023-02-27T14:32:35.032Z,3.05
2023-02-27T14:35:05.635Z,3.05
2023-02-27T14:37:33.115Z,3.03
2023-02-27T14:40:03.205Z,3.42
2023-02-27T14:43:29.191Z,2.95
2023-02-27T14:46:04.511Z,3.80
2023-02-27T14:48:31.466Z,3.22
2023-02-27T14:50:59.887Z,3.80
2023-02-27T14:53:28.015Z,3.28
2023-02-27T14:55:58.768Z,3.80
2023-02-27T15:01:09.881Z,2.72
2023-02-27T15:03:53.566Z,2.53
2023-02-27T15:06:33.193Z,2.83
2023-02-27T15:09:00.398Z,2.33
2023-02-27T15:11:27.899Z,3.05
2023-02-27T15:14:06.558Z,3.45
2023-02-27T15:16:38.608Z,3.15
2023-02-27T15:19:18.929Z,2.78
2023-02-27T15:22:03.380Z,2.40
2023-02-27T15:24:49.709Z,3.63
2023-02-27T15:27:22.792Z,3.03
2023-02-27T15:30:00.615Z,2.88
2023-02-27T15:32:31.671Z,2.97
2023-02-27T15:35:05.473Z,2.35
2023-02-27T15:37:34.774Z,3.72
2023-02-27T15:40:02.546Z,4.25
2023-02-27T15:42:37.394Z,2.63
2023-02-27T15:45:06.806Z,3.58
2023-02-27T15:47:35.548Z,2.65
2023-02-27T15:50:17.560Z,2.50
2023-02-27T15:52:53.629Z,3.00
2023-02-27T15:55:35.087Z,2.90
2023-02-27T15:58:03.716Z,2.40
2023-02-27T16:00:33.799Z,3.00
2023-02-27T16:03:01.324Z,4.93
2023-02-27T16:05:35.336Z,3.33
2023-02-27T16:08:06.892Z,2.53
2023-02-27T16:10:43.547Z,2.50
2023-02-27T16:13:35.013Z,3.17
2023-02-27T16:16:35.310Z,2.88
2023-02-27T16:19:22.521Z,2.38
2023-02-27T16:22:16.913Z,3.42
2023-02-27T16:24:45.762Z,3.08
2023-02-27T16:27:30.005Z,2.70
2023-02-27T16:30:02.502Z,2.63
2023-02-27T16:32:38.963Z,3.25
2023-02-27T16:35:22.383Z,2.75
2023-02-27T16:37:50.951Z,2.72
2023-02-27T16:40:25.047Z,2.50
2023-02-27T16:42:53.360Z,2.85
2023-02-27T16:45:24.620Z,3.17
2023-02-27T16:47:58.499Z,3.85
2023-02-27T16:50:40.580Z,3.22
2023-02-27T16:53:08.956Z,7.10
2023-02-27T16:55:40.848Z,8.88
2023-02-27T16:58:13.478Z,7.40
2023-02-27T17:00:41.549Z,25.77
2023-02-27T17:03:08.521Z,19.00
2023-02-27T17:05:35.886Z,12.10
2023-02-27T17:08:02.894Z,8.40
2023-02-27T17:10:30.025Z,5.75
2023-02-27T17:12:57.008Z,3.83
2023-02-27T17:15:23.948Z,4.15
2023-02-27T17:17:50.971Z,6.93
2023-02-27T17:20:18.108Z,2.95
2023-02-27T17:22:45.544Z,8.73
2023-02-27T17:25:13.685Z,3.45
2023-02-27T17:27:43.780Z,3.58
2023-02-27T17:30:12.579Z,4.13
2023-02-27T17:32:39.538Z,3.80
2023-02-27T17:35:07.209Z,4.00
2023-02-27T17:37:34.434Z,3.17
2023-02-27T17:40:04.583Z,3.67
2023-02-27T17:42:32.770Z,3.72
2023-02-27T17:45:01.265Z,3.35
2023-02-27T17:47:28.202Z,4.63
2023-02-27T17:49:55.136Z,4.38
2023-02-27T17:52:22.392Z,11.73
2023-02-27T17:54:49.661Z,16.63
2023-02-27T17:57:17.286Z,6.68
2023-02-27T17:59:47.106Z,8.32
2023-02-27T18:02:15.186Z,6.30
2023-02-27T18:04:42.805Z,6.15
2023-02-27T18:07:09.861Z,4.45
2023-02-27T18:09:36.853Z,5.18
2023-02-27T18:12:04.285Z,5.13
2023-02-27T18:14:31.328Z,4.05
2023-02-27T18:16:58.262Z,4.47
2023-02-27T18:19:25.307Z,4.28
2023-02-27T18:21:52.225Z,4.50
2023-02-27T18:24:19.337Z,4.60
2023-02-27T18:26:46.426Z,4.32
2023-02-27T18:29:14.487Z,6.38
2023-02-27T18:31:45.280Z,5.15
2023-02-27T18:34:13.523Z,4.40
2023-02-27T18:36:40.492Z,5.43
2023-02-27T18:39:08.639Z,4.68
2023-02-27T18:41:36.337Z,4.15
2023-02-27T18:44:04.673Z,3.97
2023-02-27T18:46:32.670Z,5.38
2023-02-27T18:48:59.893Z,4.10
2023-02-27T18:51:27.850Z,4.85
2023-02-27T18:53:55.029Z,4.38
2023-02-27T18:56:24.995Z,4.38
2023-02-27T18:58:53.413Z,3.97
2023-02-27T19:01:24.853Z,3.75
2023-02-27T19:03:53.945Z,4.25
2023-02-27T19:06:20.890Z,4.03
2023-02-27T19:08:48.072Z,3.95
2023-02-27T19:11:33.117Z,4.07
2023-02-27T19:14:02.495Z,4.43
2023-02-27T19:16:30.393Z,4.03
2023-02-27T19:19:00.122Z,3.65
2023-02-27T19:21:28.123Z,4.30
2023-02-27T19:23:55.466Z,5.63
2023-02-27T19:26:24.593Z,4.22
2023-02-27T19:28:55.324Z,4.00
2023-02-27T19:33:55.828Z,2.80
2023-02-27T19:36:25.527Z,3.67
2023-02-27T19:38:52.836Z,4.45
2023-02-27T19:41:21.409Z,3.13
2023-02-27T19:43:50.310Z,3.92
2023-02-27T19:46:23.942Z,3.05
2023-02-27T19:48:58.117Z,5.15
2023-02-27T19:51:26.667Z,3.40
2023-02-27T19:53:54.088Z,3.30
2023-02-27T19:56:27.676Z,3.50
2023-02-27T19:58:54.885Z,4.10
2023-02-27T20:01:26.758Z,3.45
2023-02-27T20:03:55.987Z,3.38
2023-02-27T20:06:26.951Z,3.65
2023-02-27T20:08:55.666Z,3.38
2023-02-27T20:11:22.881Z,4.35
2023-02-27T20:13:51.629Z,3.97
2023-02-27T20:16:22.391Z,3.63
2023-02-27T20:19:17.773Z,3.50
2023-02-27T20:22:13.725Z,4.75
2023-02-27T20:24:44.882Z,3.03
2023-02-27T20:27:12.726Z,3.95
2023-02-27T20:29:40.514Z,3.67
2023-02-27T20:32:08.901Z,3.97
2023-02-27T20:34:35.964Z,3.28
2023-02-27T20:37:03.165Z,4.68
2023-02-27T20:39:30.219Z,4.72
2023-02-27T20:41:57.132Z,3.47
2023-02-27T20:44:24.194Z,3.20
2023-02-27T20:46:51.092Z,3.47
2023-02-27T20:49:18.331Z,2.67
2023-02-27T20:51:45.942Z,3.70
2023-02-27T20:54:19.941Z,2.67
2023-02-27T20:56:51.802Z,3.22
2023-02-27T20:59:20.891Z,5.65
2023-02-27T21:01:51.730Z,3.30
2023-02-27T21:04:26.181Z,3.13
2023-02-27T21:06:54.634Z,2.50
2023-02-27T21:09:22.258Z,2.70
2023-02-27T21:11:49.192Z,2.50
2023-02-27T21:14:16.071Z,3.08
2023-02-27T21:16:42.941Z,2.17
2023-02-27T21:19:09.889Z,2.28
2023-02-27T21:21:37.054Z,3.47
2023-02-27T21:24:06.060Z,2.03
2023-02-27T21:26:38.196Z,2.53
2023-02-27T21:29:08.551Z,2.35
2023-02-27T21:31:37.898Z,1.60
2023-02-27T21:34:09.267Z,1.80
2023-02-27T21:36:43.408Z,2.22
2023-02-27T21:39:18.813Z,1.92
2023-02-27T21:41:46.550Z,1.67
2023-02-27T21:44:16.672Z,1.98
2023-02-27T21:46:43.935Z,1.92
2023-02-27T21:49:26.497Z,2.35
2023-02-27T21:51:53.925Z,1.80
2023-02-27T21:54:21.500Z,2.30
2023-02-27T21:56:49.464Z,3.13
2023-02-27T21:59:18.359Z,4.40
2023-02-27T22:01:47.524Z,2.17
2023-02-27T22:04:20.000Z,2.08
2023-02-27T22:06:49.733Z,2.40
2023-02-27T22:09:17.610Z,4.43
2023-02-27T22:11:45.285Z,1.77
2023-02-27T22:14:13.079Z,2.28
2023-02-27T22:16:41.391Z,1.70
2023-02-27T22:19:18.761Z,2.20
2023-02-27T22:21:46.176Z,2.03
2023-02-27T22:24:13.352Z,2.40
2023-02-27T22:26:41.623Z,1.70
2023-02-27T22:29:08.905Z,2.42
2023-02-27T22:31:38.263Z,1.55
2023-02-27T22:34:12.782Z,1.55
2023-02-27T22:36:41.704Z,1.63
2023-02-27T22:39:08.668Z,1.77
2023-02-27T22:41:39.910Z,1.83
2023-02-27T22:44:09.576Z,1.90
2023-02-27T22:46:41.162Z,1.85
2023-02-27T22:49:14.365Z,1.92
2023-02-27T22:51:41.995Z,1.67
2023-02-27T22:54:14.269Z,1.85
2023-02-27T22:56:41.828Z,1.73
2023-02-27T22:59:09.537Z,2.72
2023-02-27T23:01:37.914Z,1.80
2023-02-27T23:04:08.582Z,2.67
2023-02-27T23:09:09.465Z,2.15
2023-02-27T23:11:36.446Z,1.50
2023-02-27T23:14:03.341Z,1.88
2023-02-27T23:16:30.227Z,2.72
2023-02-27T23:18:59.372Z,1.98
2023-02-27T23:21:34.697Z,2.05
2023-02-27T23:24:08.345Z,1.65
2023-02-27T23:26:41.750Z,1.80
2023-02-27T23:29:10.070Z,2.17
2023-02-27T23:31:38.108Z,2.05
2023-02-27T23:34:06.398Z,1.77
2023-02-27T23:36:37.826Z,1.67
2023-02-27T23:39:06.333Z,2.05
2023-02-27T23:41:34.259Z,1.85
2023-02-27T23:44:01.632Z,2.15
2023-02-27T23:46:31.591Z,1.60
2023-02-27T23:49:01.866Z,2.17
2023-02-27T23:51:30.784Z,3.35
2023-02-27T23:53:59.146Z,2.03
2023-02-27T23:56:29.913Z,1.88
2023-02-27T23:59:04.769Z,2.38
